createdAt,value
2019-01-23T00:01:18.952Z,0.27
2019-01-23T00:04:06.633Z,0.30
2019-01-23T00:06:54.410Z,0.28
2019-01-23T00:09:22.722Z,0.28
2019-01-23T00:12:10.385Z,0.27
2019-01-23T00:14:39.039Z,0.27
2019-01-23T00:17:07.378Z,0.27
2019-01-23T00:19:35.682Z,0.28
2019-01-23T00:24:57.590Z,0.29
2019-01-23T00:27:26.163Z,0.29
2019-01-23T00:32:42.126Z,0.27
2019-01-23T00:38:24.769Z,0.28
2019-01-23T00:40:53.091Z,0.30
2019-01-23T00:43:40.898Z,0.30
2019-01-23T00:46:09.227Z,0.31
2019-01-23T00:48:37.563Z,0.32
2019-01-23T00:51:06.218Z,0.31
2019-01-23T00:53:34.559Z,0.32
2019-01-23T00:56:02.868Z,0.34
2019-01-23T00:58:31.178Z,0.36
2019-01-23T01:01:18.970Z,0.35
2019-01-23T01:04:06.653Z,0.34
2019-01-23T01:06:34.980Z,0.32
2019-01-23T01:12:11.376Z,0.27
2019-01-23T01:14:39.700Z,0.25
2019-01-23T01:17:08.038Z,0.26
2019-01-23T01:19:36.355Z,0.26
2019-01-23T01:22:44.981Z,0.26
2019-01-23T01:25:53.355Z,0.26
2019-01-23T01:28:22.030Z,0.23
2019-01-23T01:30:50.366Z,0.21
2019-01-23T01:33:18.709Z,0.21
2019-01-23T01:35:47.376Z,0.21
2019-01-23T01:41:09.930Z,0.23
2019-01-23T01:43:38.262Z,0.23
2019-01-23T01:46:06.575Z,0.23
2019-01-23T01:48:35.270Z,0.23
2019-01-23T01:51:03.599Z,0.21
2019-01-23T01:53:31.924Z,0.20
2019-01-23T01:56:00.251Z,0.21
2019-01-23T01:58:28.563Z,0.21
2019-01-23T02:00:56.911Z,0.20
2019-01-23T02:03:44.870Z,0.21
2019-01-23T02:06:13.212Z,0.22
2019-01-23T02:08:41.522Z,0.22
2019-01-23T02:11:09.853Z,0.22
2019-01-23T02:16:25.507Z,0.19
2019-01-23T02:18:53.822Z,0.18
2019-01-23T02:21:22.156Z,0.15
2019-01-23T02:23:50.483Z,0.13
2019-01-23T02:26:18.797Z,0.12
2019-01-23T02:28:47.423Z,0.11
2019-01-23T02:31:15.748Z,0.12
2019-01-23T02:33:44.096Z,0.12
2019-01-23T02:36:12.421Z,0.13
2019-01-23T02:38:41.041Z,0.13
2019-01-23T02:41:28.484Z,0.13
2019-01-23T02:43:56.828Z,0.13
2019-01-23T02:46:25.150Z,0.13
2019-01-23T02:48:53.466Z,0.14
2019-01-23T02:51:21.809Z,0.16
2019-01-23T02:53:50.135Z,0.17
2019-01-23T02:56:18.451Z,0.18
2019-01-23T02:58:47.114Z,0.20
2019-01-23T03:01:15.443Z,0.21
2019-01-23T03:06:50.770Z,0.21
2019-01-23T03:09:19.077Z,0.25
2019-01-23T03:12:06.790Z,0.27
2019-01-23T03:14:35.111Z,0.28
2019-01-23T03:17:03.436Z,0.26
2019-01-23T03:22:07.074Z,0.27
2019-01-23T03:24:35.406Z,0.28
2019-01-23T03:27:03.730Z,0.27
2019-01-23T03:29:32.084Z,0.27
2019-01-23T03:32:19.533Z,0.27
2019-01-23T03:34:47.863Z,0.27
2019-01-23T03:37:16.723Z,0.25
2019-01-23T03:42:20.794Z,0.24
2019-01-23T03:45:29.246Z,0.27
2019-01-23T03:47:57.896Z,0.25
2019-01-23T03:50:26.234Z,0.23
2019-01-23T03:52:54.545Z,0.22
2019-01-23T03:55:23.135Z,0.20
2019-01-23T03:57:51.476Z,0.21
2019-01-23T04:00:59.849Z,0.19
2019-01-23T04:03:28.172Z,0.17
2019-01-23T04:05:56.522Z,0.14
2019-01-23T04:08:24.838Z,0.12
2019-01-23T04:10:53.443Z,0.10
2019-01-23T04:13:41.469Z,0.09
2019-01-23T04:16:09.753Z,0.08
2019-01-23T04:18:38.074Z,0.07
2019-01-23T04:21:06.357Z,0.06
2019-01-23T04:23:54.014Z,0.07
2019-01-23T04:26:22.316Z,0.06
2019-01-23T04:28:50.634Z,0.06
2019-01-23T04:31:18.942Z,0.06
2019-01-23T04:33:47.249Z,0.07
2019-01-23T04:36:15.550Z,0.06
2019-01-23T04:38:44.198Z,0.05
2019-01-23T04:41:12.500Z,0.05
2019-01-23T04:43:40.785Z,0.01
2019-01-23T04:46:09.096Z,-0.01
2019-01-23T04:48:37.408Z,-0.04
2019-01-23T04:51:24.845Z,-0.12
2019-01-23T04:53:53.137Z,-0.15
2019-01-23T04:56:40.864Z,-0.13
2019-01-23T04:59:09.169Z,-0.12
2019-01-23T05:04:11.535Z,-0.16
2019-01-23T05:06:39.865Z,-0.19
2019-01-23T05:09:48.211Z,-0.21
2019-01-23T05:15:43.885Z,-0.21
2019-01-23T05:18:12.189Z,-0.21
2019-01-23T05:20:40.811Z,-0.25
2019-01-23T05:23:09.114Z,-0.22
2019-01-23T05:25:37.422Z,-0.21
2019-01-23T05:28:05.829Z,-0.20
2019-01-23T05:30:34.112Z,-0.21
2019-01-23T05:33:02.400Z,-0.29
2019-01-23T05:35:31.072Z,-0.34
2019-01-23T05:37:59.368Z,-0.42
2019-01-23T05:40:28.032Z,-0.50
2019-01-23T05:42:56.338Z,-0.53
2019-01-23T05:45:24.641Z,-0.51
2019-01-23T05:47:52.953Z,-0.46
2019-01-23T05:50:21.360Z,-0.48
2019-01-23T05:52:49.657Z,-0.55
2019-01-23T05:55:58.026Z,-0.63
2019-01-23T05:58:26.609Z,-0.64
2019-01-23T06:01:14.378Z,-0.64
2019-01-23T06:04:02.046Z,-0.72
2019-01-23T06:06:30.369Z,-0.71
2019-01-23T06:08:58.656Z,-0.66
2019-01-23T06:11:26.977Z,-0.64
2019-01-23T06:13:55.351Z,-0.68
2019-01-23T06:16:23.654Z,-0.66
2019-01-23T06:18:51.986Z,-0.73
2019-01-23T06:21:20.289Z,-0.77
2019-01-23T06:23:48.604Z,-0.72
2019-01-23T06:26:17.182Z,-0.73
2019-01-23T06:28:45.491Z,-0.71
2019-01-23T06:31:33.235Z,-0.79
2019-01-23T06:36:35.379Z,-0.89
2019-01-23T06:42:18.418Z,-0.90
2019-01-23T06:44:46.709Z,-0.90
2019-01-23T06:47:34.391Z,-0.85
2019-01-23T06:50:21.821Z,-0.78
2019-01-23T06:52:50.124Z,-0.78
2019-01-23T06:55:58.716Z,-0.77
2019-01-23T06:58:27.329Z,-0.80
2019-01-23T07:00:55.638Z,-0.78
2019-01-23T07:06:11.268Z,-0.93
2019-01-23T07:08:39.558Z,-0.93
2019-01-23T07:11:27.237Z,-0.92
2019-01-23T07:13:55.542Z,-0.90
2019-01-23T07:19:11.168Z,-0.90
2019-01-23T07:21:39.475Z,-0.90
2019-01-23T07:24:07.794Z,-0.91
2019-01-23T07:26:36.092Z,-0.91
2019-01-23T07:29:04.704Z,-0.88
2019-01-23T07:31:52.379Z,-0.86
2019-01-23T07:34:20.702Z,-0.79
2019-01-23T07:36:49.014Z,-0.71
2019-01-23T07:39:17.323Z,-0.66
2019-01-23T07:41:45.630Z,-0.64
2019-01-23T07:44:13.942Z,-0.69
2019-01-23T07:46:42.251Z,-0.70
2019-01-23T07:49:10.552Z,-0.62
2019-01-23T07:51:38.871Z,-0.51
2019-01-23T07:54:07.185Z,-0.41
2019-01-23T07:56:35.808Z,-0.35
2019-01-23T07:59:04.111Z,-0.33
2019-01-23T08:01:51.558Z,-0.44
2019-01-23T08:04:19.840Z,-0.47
2019-01-23T08:06:48.141Z,-0.38
2019-01-23T08:09:35.834Z,-0.34
2019-01-23T08:12:10.531Z,-0.28
2019-01-23T08:14:34.601Z,-0.23
2019-01-23T08:17:02.891Z,-0.20
2019-01-23T08:19:31.461Z,-0.15
2019-01-23T08:21:59.758Z,-0.13
2019-01-23T08:24:28.063Z,-0.13
2019-01-23T08:26:56.366Z,-0.20
2019-01-23T08:29:24.987Z,-0.20
2019-01-23T08:31:53.277Z,-0.11
2019-01-23T08:36:55.300Z,0.01
2019-01-23T08:39:23.622Z,-0.03
2019-01-23T08:41:51.913Z,-0.03
2019-01-23T08:44:20.222Z,-0.03
2019-01-23T08:46:48.541Z,0.03
2019-01-23T08:52:23.518Z,0.15
2019-01-23T08:54:51.796Z,0.18
2019-01-23T08:57:20.099Z,0.15
2019-01-23T08:59:48.390Z,0.18
2019-01-23T09:02:36.068Z,0.21
2019-01-23T09:05:44.665Z,0.21
2019-01-23T09:10:47.797Z,0.22
2019-01-23T09:13:35.752Z,0.17
2019-01-23T09:16:04.310Z,0.10
2019-01-23T09:18:32.629Z,0.10
2019-01-23T09:21:20.294Z,0.05
2019-01-23T09:23:48.625Z,0.01
2019-01-23T09:26:16.915Z,-0.02
2019-01-23T09:28:45.215Z,-0.14
2019-01-23T09:31:53.556Z,-0.17
2019-01-23T09:35:00.837Z,-0.13
2019-01-23T09:38:09.222Z,-0.13
2019-01-23T09:41:17.582Z,-0.16
2019-01-23T09:44:25.913Z,-0.13
2019-01-23T09:47:34.335Z,-0.04
2019-01-23T09:50:41.344Z,0.08
2019-01-23T09:53:50.015Z,0.15
2019-01-23T09:56:18.351Z,0.23
2019-01-23T09:59:06.004Z,0.24
2019-01-23T10:01:34.635Z,0.33
2019-01-23T10:06:50.266Z,0.54
2019-01-23T10:12:05.982Z,0.51
2019-01-23T10:14:34.270Z,0.46
2019-01-23T10:17:42.626Z,0.34
2019-01-23T10:20:10.925Z,0.12
2019-01-23T10:22:39.237Z,0.18
2019-01-23T10:25:47.554Z,0.32
2019-01-23T10:28:35.318Z,0.26
2019-01-23T10:31:06.816Z,0.36
2019-01-23T10:33:33.945Z,0.45
2019-01-23T10:36:02.243Z,0.47
2019-01-23T10:38:30.566Z,0.52
2019-01-23T10:40:58.872Z,0.54
2019-01-23T10:46:20.073Z,0.61
2019-01-23T10:48:48.361Z,0.80
2019-01-23T10:51:36.001Z,0.86
2019-01-23T10:54:44.356Z,0.80
2019-01-23T10:57:12.984Z,0.83
2019-01-23T10:59:41.279Z,0.98
2019-01-23T11:02:09.651Z,0.91
2019-01-23T11:04:38.217Z,0.79
2019-01-23T11:07:06.537Z,0.71
2019-01-23T11:09:34.836Z,0.72
2019-01-23T11:12:03.151Z,0.75
2019-01-23T11:14:31.701Z,0.71
2019-01-23T11:17:00.006Z,0.56
2019-01-23T11:19:47.745Z,0.61
2019-01-23T11:22:16.061Z,0.59
2019-01-23T11:24:44.709Z,0.52
2019-01-23T11:27:12.995Z,0.40
2019-01-23T11:29:41.305Z,0.35
2019-01-23T11:32:09.592Z,0.36
2019-01-23T11:34:37.904Z,0.47
2019-01-23T11:37:46.240Z,0.43
2019-01-23T11:40:54.592Z,0.30
2019-01-23T11:46:10.224Z,0.40
2019-01-23T11:48:38.535Z,0.47
2019-01-23T11:51:46.890Z,0.47
2019-01-23T11:54:15.184Z,0.39
2019-01-23T11:56:43.488Z,0.44
2019-01-23T11:59:11.780Z,0.46
2019-01-23T12:01:40.072Z,0.51
2019-01-23T12:04:08.406Z,0.58
2019-01-23T12:06:36.693Z,0.66
2019-01-23T12:09:45.059Z,0.64
2019-01-23T12:12:13.355Z,0.60
2019-01-23T12:17:23.764Z,0.54
2019-01-23T12:19:52.068Z,0.42
2019-01-23T12:22:20.433Z,0.39
2019-01-23T12:24:48.744Z,0.45
2019-01-23T12:27:17.028Z,0.51
2019-01-23T12:29:45.325Z,0.54
2019-01-23T12:32:33.267Z,0.55
2019-01-23T12:35:20.688Z,0.43
2019-01-23T12:38:08.112Z,0.46
2019-01-23T12:40:55.761Z,0.44
2019-01-23T12:43:43.409Z,0.45
2019-01-23T12:48:59.306Z,0.27
2019-01-23T12:51:27.594Z,0.20
2019-01-23T12:53:55.922Z,0.23
2019-01-23T12:56:43.612Z,0.29
2019-01-23T12:59:11.919Z,0.36
2019-01-23T13:01:42.223Z,0.52
2019-01-23T13:04:10.593Z,0.47
2019-01-23T13:06:38.894Z,0.40
2019-01-23T13:09:47.246Z,0.32
2019-01-23T13:12:35.002Z,0.30
2019-01-23T13:15:22.858Z,0.30
2019-01-23T13:18:10.594Z,0.30
2019-01-23T13:20:38.905Z,0.35
2019-01-23T13:23:07.539Z,0.42
2019-01-23T13:25:35.852Z,0.41
2019-01-23T13:28:23.525Z,0.40
2019-01-23T13:31:10.959Z,0.42
2019-01-23T13:33:39.556Z,0.52
2019-01-23T13:36:47.989Z,0.58
2019-01-23T13:39:56.312Z,0.58
2019-01-23T13:44:59.072Z,0.31
2019-01-23T13:47:46.834Z,0.18
2019-01-23T13:50:55.156Z,0.17
2019-01-23T13:53:23.463Z,0.23
2019-01-23T13:56:11.389Z,0.25
2019-01-23T13:58:41.938Z,0.28
2019-01-23T14:03:57.367Z,0.33
2019-01-23T14:06:44.996Z,0.27
2019-01-23T14:09:13.301Z,0.30
2019-01-23T14:12:00.800Z,0.27
2019-01-23T14:17:03.449Z,0.08
2019-01-23T14:20:11.872Z,0.03
2019-01-23T14:22:40.168Z,-0.03
2019-01-23T14:25:48.587Z,0.01
2019-01-23T14:28:36.908Z,0.04
2019-01-23T14:31:25.870Z,0.04
2019-01-23T14:34:13.289Z,0.04
2019-01-23T14:36:41.597Z,-0.01
2019-01-23T14:39:09.916Z,-0.05
2019-01-23T14:41:38.253Z,0.03
2019-01-23T14:44:06.565Z,0.08
2019-01-23T14:46:54.252Z,0.15
2019-01-23T14:49:22.856Z,0.12
2019-01-23T14:51:51.179Z,0.07
2019-01-23T14:54:19.478Z,-0.02
2019-01-23T14:57:07.161Z,-0.11
2019-01-23T14:59:35.461Z,-0.15
2019-01-23T15:02:23.146Z,-0.18
2019-01-23T15:05:10.826Z,-0.17
2019-01-23T15:10:53.383Z,-0.34
2019-01-23T15:13:40.827Z,-0.35
2019-01-23T15:16:09.132Z,-0.38
2019-01-23T15:21:11.395Z,-0.38
2019-01-23T15:23:39.714Z,-0.37
2019-01-23T15:26:08.369Z,-0.47
2019-01-23T15:28:36.684Z,-0.51
2019-01-23T15:31:24.353Z,-0.51
2019-01-23T15:33:52.679Z,-0.49
2019-01-23T15:36:40.317Z,-0.43
2019-01-23T15:39:08.963Z,-0.43
2019-01-23T15:46:59.194Z,-0.45
2019-01-23T15:49:27.791Z,-0.52
2019-01-23T15:51:56.093Z,-0.59
2019-01-23T15:54:24.386Z,-0.63
2019-01-23T15:57:12.233Z,-0.58
2019-01-23T15:59:40.534Z,-0.55
2019-01-23T16:02:49.174Z,-0.52
2019-01-23T16:08:06.441Z,-0.65
2019-01-23T16:10:34.751Z,-0.64
2019-01-23T16:13:03.164Z,-0.59
2019-01-23T16:15:33.996Z,-0.60
2019-01-23T16:18:22.494Z,-0.60
2019-01-23T16:20:51.128Z,-0.56
2019-01-23T16:23:59.743Z,-0.62
2019-01-23T16:26:28.045Z,-0.76
2019-01-23T16:28:56.366Z,-0.84
2019-01-23T16:31:24.672Z,-0.88
2019-01-23T16:34:12.324Z,-0.82
2019-01-23T16:36:40.634Z,-0.83
2019-01-23T16:39:28.658Z,-0.86
2019-01-23T16:41:56.949Z,-0.90
2019-01-23T16:44:44.638Z,-0.97
2019-01-23T16:47:32.566Z,-0.99
2019-01-23T16:50:01.163Z,-1.04
2019-01-23T16:52:29.744Z,-1.13
2019-01-23T17:06:34.006Z,-1.05
2019-01-23T17:09:42.333Z,-1.08
2019-01-23T17:14:44.944Z,-1.13
2019-01-23T17:17:13.249Z,-1.15
2019-01-23T17:22:28.887Z,-1.22
2019-01-23T17:24:57.189Z,-1.15
2019-01-23T17:27:25.779Z,-1.09
2019-01-23T17:29:54.380Z,-1.05
2019-01-23T17:32:24.077Z,-1.15
2019-01-23T17:35:11.874Z,-1.19
2019-01-23T17:37:59.609Z,-1.21
2019-01-23T17:43:02.066Z,-1.23
2019-01-23T17:45:49.737Z,-1.18
2019-01-23T17:51:05.693Z,-1.19
2019-01-23T17:53:33.984Z,-1.24
2019-01-23T17:56:02.649Z,-1.28
2019-01-23T17:58:30.936Z,-1.30
2019-01-23T18:01:18.614Z,-1.31
2019-01-23T18:03:46.906Z,-1.32
2019-01-23T18:08:49.928Z,-1.28
2019-01-23T18:11:18.228Z,-1.32
2019-01-23T18:14:05.911Z,-1.33
2019-01-23T18:16:34.254Z,-1.33
2019-01-23T18:19:02.893Z,-1.28
2019-01-23T18:24:18.538Z,-1.14
2019-01-23T18:26:47.168Z,-1.10
2019-01-23T18:29:34.577Z,-1.08
2019-01-23T18:32:42.945Z,-1.07
2019-01-23T18:39:02.586Z,-1.06
2019-01-23T18:42:10.988Z,-1.11
2019-01-23T18:45:19.332Z,-1.17
2019-01-23T18:48:27.675Z,-1.21
2019-01-23T18:51:36.011Z,-1.19
2019-01-23T18:54:44.355Z,-1.29
2019-01-23T18:57:52.685Z,-1.25
2019-01-23T19:01:01.031Z,-1.20
2019-01-23T19:06:18.305Z,-1.23
2019-01-23T19:09:06.006Z,-1.27
2019-01-23T19:11:53.427Z,-1.37
2019-01-23T19:14:41.121Z,-1.46
2019-01-23T19:17:09.421Z,-1.54
2019-01-23T19:19:38.023Z,-1.61
2019-01-23T19:24:41.033Z,-1.70
2019-01-23T19:27:29.182Z,-1.67
2019-01-23T19:29:57.499Z,-1.64
2019-01-23T19:35:18.979Z,-1.51
2019-01-23T19:37:47.603Z,-1.44
2019-01-23T19:40:55.944Z,-1.41
2019-01-23T19:43:24.248Z,-1.42
2019-01-23T19:45:52.548Z,-1.49
2019-01-23T19:50:55.177Z,-1.50
2019-01-23T19:53:23.498Z,-1.62
2019-01-23T19:56:11.125Z,-1.64
2019-01-23T19:58:58.817Z,-1.63
2019-01-23T20:01:46.455Z,-1.57
2019-01-23T20:04:15.068Z,-1.53
2019-01-23T20:07:02.995Z,-1.48
2019-01-23T20:09:31.325Z,-1.48
2019-01-23T20:11:59.626Z,-1.48
2019-01-23T20:14:27.918Z,-1.51
2019-01-23T20:17:15.365Z,-1.47
2019-01-23T20:22:31.009Z,-1.48
2019-01-23T20:25:18.677Z,-1.56
2019-01-23T20:27:47.005Z,-1.58
2019-01-23T20:30:35.324Z,-1.54
2019-01-23T20:35:37.814Z,-1.58
2019-01-23T20:38:25.508Z,-1.62
2019-01-23T20:41:13.135Z,-1.66
2019-01-23T20:44:00.572Z,-1.61
2019-01-23T20:46:47.997Z,-1.64
2019-01-23T20:49:16.312Z,-1.64
2019-01-23T20:51:44.617Z,-1.59
2019-01-23T20:54:12.959Z,-1.57
2019-01-23T20:56:41.254Z,-1.58
2019-01-23T21:01:56.889Z,-1.59
2019-01-23T21:04:25.195Z,-1.67
2019-01-23T21:06:53.512Z,-1.70
2019-01-23T21:09:41.194Z,-1.65
2019-01-23T21:14:43.035Z,-1.59
2019-01-23T21:17:11.684Z,-1.58
2019-01-23T21:19:39.969Z,-1.74
2019-01-23T21:22:08.276Z,-1.90
2019-01-23T21:24:36.617Z,-1.92
2019-01-23T21:27:04.976Z,-1.96
2019-01-23T21:29:45.759Z,-1.96
2019-01-23T21:34:48.398Z,-2.02
2019-01-23T21:37:36.099Z,-2.08
2019-01-23T21:40:44.501Z,-2.17
2019-01-23T21:43:12.859Z,-2.24
2019-01-23T21:45:41.462Z,-2.17
2019-01-23T21:48:29.218Z,-2.10
2019-01-23T21:50:57.520Z,-2.18
2019-01-23T21:53:26.154Z,-2.23
2019-01-23T21:55:54.460Z,-2.23
2019-01-23T22:01:10.085Z,-2.05
2019-01-23T22:03:38.374Z,-2.06
2019-01-23T22:06:06.750Z,-2.11
2019-01-23T22:08:35.041Z,-2.11
2019-01-23T22:11:03.650Z,-2.10
2019-01-23T22:13:31.940Z,-2.05
2019-01-23T22:16:19.463Z,-2.14
2019-01-23T22:18:47.756Z,-2.26
2019-01-23T22:21:16.046Z,-2.26
2019-01-23T22:23:44.355Z,-2.31
2019-01-23T22:26:31.849Z,-2.26
2019-01-23T22:29:00.507Z,-2.15
2019-01-23T22:31:28.801Z,-2.08
2019-01-23T22:33:57.117Z,-2.02
2019-01-23T22:36:25.775Z,-2.01
2019-01-23T22:38:54.053Z,-2.01
2019-01-23T22:41:22.342Z,-2.01
2019-01-23T22:44:10.298Z,-2.02
2019-01-23T22:46:38.603Z,-2.09
2019-01-23T22:49:06.890Z,-2.03
2019-01-23T22:51:35.460Z,-1.97
2019-01-23T22:57:11.859Z,-1.95
2019-01-23T23:02:46.926Z,-1.89
2019-01-23T23:05:55.284Z,-1.91
2019-01-23T23:08:23.594Z,-1.89
2019-01-23T23:10:52.298Z,-1.89
2019-01-23T23:13:39.991Z,-1.88
2019-01-23T23:16:08.592Z,-1.91
2019-01-23T23:18:56.274Z,-1.97
2019-01-23T23:21:24.582Z,-1.99
2019-01-23T23:23:53.189Z,-1.98
2019-01-23T23:26:21.484Z,-1.98
2019-01-23T23:28:49.797Z,-1.96
2019-01-23T23:31:18.104Z,-1.97
2019-01-23T23:33:46.408Z,-2.00
2019-01-23T23:36:14.749Z,-1.99
2019-01-23T23:43:50.564Z,-1.98
2019-01-23T23:46:18.865Z,-2.01
2019-01-23T23:49:06.545Z,-1.98
2019-01-23T23:51:34.845Z,-2.01
2019-01-23T23:54:03.154Z,-1.99
2019-01-23T23:56:31.445Z,-2.08
2019-01-23T23:59:00.093Z,-2.12
